TimeEST,TemperatureF,Dew PointF,Humidity,Sea Level PressureIn,VisibilityMPH,Wind Direction,Wind SpeedMPH,Gust SpeedMPH,PrecipitationIn,Events,Conditions,WindDirDegrees,DateUTC
12:51 AM,39.9,33.1,77,30.22,10.0,Calm,Calm,-,N/A,,Clear,0,2012-11-22 05:51:00
1:51 AM,37.9,32.0,79,30.22,9.0,Calm,Calm,-,N/A,,Clear,0,2012-11-22 06:51:00
2:51 AM,37.0,32.0,82,30.22,10.0,Calm,Calm,-,N/A,,Clear,0,2012-11-22 07:51:00
3:51 AM,36.0,32.0,86,30.22,10.0,Calm,Calm,-,N/A,,Clear,0,2012-11-22 08:51:00
4:51 AM,34.0,30.9,89,30.23,10.0,ESE,3.5,-,N/A,,Clear,110,2012-11-22 09:51:00
5:51 AM,33.1,30.0,89,30.24,7.0,Calm,Calm,-,N/A,,Clear,0,2012-11-22 10:51:00
6:51 AM,32.0,30.0,92,30.25,9.0,East,3.5,-,N/A,,Clear,100,2012-11-22 11:51:00
7:51 AM,33.1,30.0,89,30.26,10.0,Calm,Calm,-,N/A,,Clear,0,2012-11-22 12:51:00
8:51 AM,37.9,34.0,86,30.25,10.0,East,3.5,-,N/A,,Clear,90,2012-11-22 13:51:00
9:51 AM,45.0,35.1,68,30.25,9.0,Calm,Calm,-,N/A,,Clear,0,2012-11-22 14:51:00
10:51 AM,53.1,35.1,50,30.24,10.0,SSW,3.5,-,N/A,,Clear,210,2012-11-22 15:51:00
11:51 AM,59.0,34.0,39,30.22,10.0,Variable,3.5,-,N/A,,Clear,0,2012-11-22 16:51:00
12:51 PM,62.1,33.1,34,30.18,10.0,SW,8.1,-,N/A,,Clear,220,2012-11-22 17:51:00
1:51 PM,64.0,36.0,35,30.15,10.0,Variable,4.6,-,N/A,,Clear,0,2012-11-22 18:51:00
2:51 PM,64.0,35.1,34,30.13,10.0,SW,5.8,-,N/A,,Clear,220,2012-11-22 19:51:00
3:51 PM,63.0,35.1,35,30.12,10.0,South,6.9,-,N/A,,Clear,190,2012-11-22 20:51:00
4:51 PM,61.0,34.0,36,30.12,10.0,South,4.6,-,N/A,,Clear,190,2012-11-22 21:51:00
5:51 PM,60.1,33.1,36,30.12,10.0,SSE,3.5,-,N/A,,Clear,160,2012-11-22 22:51:00
6:51 PM,57.0,33.1,40,30.12,10.0,Calm,Calm,-,N/A,,Clear,0,2012-11-22 23:51:00
7:51 PM,50.0,34.0,54,30.12,8.0,Calm,Calm,-,N/A,,Clear,0,2012-11-23 00:51:00
8:51 PM,48.9,34.0,56,30.10,10.0,Calm,Calm,-,N/A,,Clear,0,2012-11-23 01:51:00
9:51 PM,45.0,34.0,65,30.09,10.0,SW,3.5,-,N/A,,Clear,230,2012-11-23 02:51:00
10:51 PM,46.9,34.0,61,30.07,10.0,South,5.8,-,N/A,,Clear,190,2012-11-23 03:51:00
11:51 PM,46.9,34.0,61,30.06,10.0,South,5.8,-,N/A,,Clear,190,2012-11-23 04:51:00